createdAt,value
2022-12-17T00:01:14.031Z,22.10
2022-12-17T00:03:59.697Z,22.83
2022-12-17T00:06:45.031Z,22.25
2022-12-17T00:09:30.490Z,23.17
2022-12-17T00:12:16.043Z,23.63
2022-12-17T00:15:01.485Z,23.20
2022-12-17T00:17:47.099Z,22.27
2022-12-17T00:20:32.362Z,22.27
2022-12-17T00:23:19.290Z,23.02
2022-12-17T00:26:12.678Z,23.10
2022-12-17T00:28:58.286Z,21.33
2022-12-17T00:31:46.312Z,23.13
2022-12-17T00:34:31.803Z,23.00
2022-12-17T00:37:17.666Z,24.17
2022-12-17T00:42:48.234Z,23.58
2022-12-17T00:45:33.680Z,23.98
2022-12-17T00:48:19.172Z,24.50
2022-12-17T00:51:04.619Z,24.77
2022-12-17T00:53:50.082Z,26.15
2022-12-17T00:56:35.699Z,26.85
2022-12-17T00:59:21.118Z,26.45
2022-12-17T01:02:07.801Z,27.67
2022-12-17T01:04:53.119Z,27.48
2022-12-17T01:07:39.510Z,26.95
2022-12-17T01:10:24.818Z,27.30
2022-12-17T01:13:10.515Z,28.33
2022-12-17T01:15:56.708Z,28.77
2022-12-17T01:18:42.065Z,28.50
2022-12-17T01:21:27.235Z,28.13
2022-12-17T01:24:12.835Z,28.13
2022-12-17T01:26:58.261Z,27.80
2022-12-17T01:29:43.768Z,27.75
2022-12-17T01:32:29.158Z,27.67
2022-12-17T01:35:14.623Z,27.42
2022-12-17T01:38:00.179Z,26.98
2022-12-17T01:40:45.659Z,27.75
2022-12-17T01:43:49.009Z,26.10
2022-12-17T01:46:34.160Z,25.67
2022-12-17T01:49:19.574Z,25.47
2022-12-17T01:52:04.982Z,24.13
2022-12-17T01:54:50.395Z,27.50
2022-12-17T01:57:36.121Z,24.65
2022-12-17T02:00:26.188Z,24.15
2022-12-17T02:03:12.050Z,22.27
2022-12-17T02:06:16.687Z,22.88
2022-12-17T02:09:13.310Z,23.23
2022-12-17T02:12:26.383Z,22.20
2022-12-17T02:15:29.398Z,21.15
2022-12-17T02:18:19.288Z,21.98
2022-12-17T02:21:10.739Z,21.10
2022-12-17T02:24:20.585Z,20.83
2022-12-17T02:27:13.086Z,19.90
2022-12-17T02:30:05.588Z,19.63
2022-12-17T02:32:53.111Z,20.75
2022-12-17T02:35:44.035Z,19.65
2022-12-17T02:38:40.766Z,20.42
2022-12-17T02:41:28.215Z,21.65
2022-12-17T02:44:14.883Z,20.58
2022-12-17T02:47:01.894Z,18.55
2022-12-17T02:49:47.363Z,18.83
2022-12-17T02:52:37.250Z,19.13
2022-12-17T02:55:23.644Z,18.42
2022-12-17T02:58:08.979Z,18.27
2022-12-17T03:00:54.383Z,16.75
2022-12-17T03:03:39.922Z,17.45
2022-12-17T03:06:25.561Z,18.38
2022-12-17T03:09:11.147Z,18.38
2022-12-17T03:11:56.674Z,18.42
2022-12-17T03:14:42.146Z,18.83
2022-12-17T03:17:27.593Z,16.90
2022-12-17T03:20:12.879Z,19.38
2022-12-17T03:22:58.339Z,18.88
2022-12-17T03:25:43.679Z,18.63
2022-12-17T03:28:30.498Z,19.25
2022-12-17T03:31:17.671Z,18.25
2022-12-17T03:34:03.639Z,19.73
2022-12-17T03:39:34.627Z,16.85
2022-12-17T03:42:20.180Z,17.67
2022-12-17T03:45:05.692Z,18.48
2022-12-17T03:47:50.987Z,17.70
2022-12-17T03:50:36.526Z,18.38
2022-12-17T03:53:23.975Z,19.10
2022-12-17T03:56:09.382Z,16.05
2022-12-17T03:58:54.757Z,14.30
2022-12-17T04:01:40.526Z,15.95
2022-12-17T04:04:26.021Z,16.15
2022-12-17T04:07:11.678Z,15.65
2022-12-17T04:09:57.129Z,15.52
2022-12-17T04:12:42.933Z,15.32
2022-12-17T04:15:28.451Z,14.18
2022-12-17T04:18:14.249Z,15.57
2022-12-17T04:20:59.467Z,14.23
2022-12-17T04:23:44.797Z,14.30
2022-12-17T04:26:30.215Z,15.35
2022-12-17T04:29:15.833Z,14.50
2022-12-17T04:32:01.181Z,14.55
2022-12-17T04:34:46.646Z,14.60
2022-12-17T04:37:32.028Z,15.18
2022-12-17T04:40:17.261Z,14.02
2022-12-17T04:43:02.542Z,13.85
2022-12-17T04:45:48.247Z,13.68
2022-12-17T04:48:33.639Z,13.57
2022-12-17T04:51:19.154Z,13.55
2022-12-17T04:54:04.604Z,13.60
2022-12-17T04:56:50.063Z,13.57
2022-12-17T04:59:43.215Z,13.30
2022-12-17T05:02:29.118Z,12.60
2022-12-17T05:07:59.914Z,12.85
2022-12-17T05:10:45.218Z,13.38
2022-12-17T05:13:30.999Z,12.40
2022-12-17T05:16:16.600Z,13.18
2022-12-17T05:19:02.088Z,13.20
2022-12-17T05:21:47.430Z,14.38
2022-12-17T05:24:32.965Z,12.90
2022-12-17T05:27:18.366Z,13.18
2022-12-17T05:30:03.761Z,12.50
2022-12-17T05:32:49.025Z,12.55
2022-12-17T05:35:34.391Z,13.40
2022-12-17T05:38:24.227Z,13.45
2022-12-17T05:41:10.061Z,13.23
2022-12-17T05:43:55.514Z,13.18
2022-12-17T05:46:40.926Z,12.88
2022-12-17T05:49:26.413Z,13.20
2022-12-17T05:52:12.172Z,12.73
2022-12-17T05:54:57.530Z,12.52
2022-12-17T05:57:43.112Z,12.35
2022-12-17T06:00:29.445Z,12.48
2022-12-17T06:03:19.040Z,12.23
2022-12-17T06:06:04.245Z,11.43
2022-12-17T06:08:49.642Z,11.60
2022-12-17T06:11:34.842Z,12.40
2022-12-17T06:14:20.366Z,12.90
2022-12-17T06:17:05.742Z,11.90
2022-12-17T06:19:51.110Z,11.63
2022-12-17T06:22:36.497Z,11.35
2022-12-17T06:25:22.248Z,12.25
2022-12-17T06:28:07.702Z,12.10
2022-12-17T06:30:53.244Z,14.15
2022-12-17T06:33:39.149Z,11.13
2022-12-17T06:39:09.901Z,12.07
2022-12-17T06:42:02.037Z,12.40
2022-12-17T06:44:47.514Z,11.98
2022-12-17T06:47:32.887Z,12.40
2022-12-17T06:50:18.323Z,12.00
2022-12-17T06:53:03.728Z,11.77
2022-12-17T06:55:49.159Z,11.65
2022-12-17T06:58:34.614Z,12.23
2022-12-17T07:01:20.080Z,12.30
2022-12-17T07:04:05.519Z,13.10
2022-12-17T07:06:50.801Z,12.13
2022-12-17T07:09:36.354Z,12.38
2022-12-17T07:12:21.857Z,12.68
2022-12-17T07:15:07.248Z,13.18
2022-12-17T07:17:52.922Z,12.20
2022-12-17T07:20:38.247Z,12.07
2022-12-17T07:23:24.078Z,11.77
2022-12-17T07:26:09.558Z,12.23
2022-12-17T07:28:55.207Z,12.45
2022-12-17T07:31:40.856Z,12.40
2022-12-17T07:34:26.041Z,12.40
2022-12-17T07:37:13.935Z,12.57
2022-12-17T07:40:02.609Z,12.07
2022-12-17T07:42:47.705Z,12.13
2022-12-17T07:45:33.342Z,12.27
2022-12-17T07:48:19.009Z,12.55
2022-12-17T07:51:10.569Z,13.95
2022-12-17T07:53:55.967Z,12.75
2022-12-17T07:56:41.381Z,12.82
2022-12-17T07:59:26.681Z,13.43
2022-12-17T08:02:12.438Z,15.25
2022-12-17T08:07:44.190Z,13.07
2022-12-17T08:10:29.831Z,14.63
2022-12-17T08:13:20.804Z,13.85
2022-12-17T08:16:07.348Z,13.00
2022-12-17T08:18:52.791Z,13.88
2022-12-17T08:21:38.343Z,15.65
2022-12-17T08:24:23.876Z,14.85
2022-12-17T08:27:09.660Z,15.82
2022-12-17T08:29:55.118Z,15.40
2022-12-17T08:32:41.119Z,15.50
2022-12-17T08:38:12.435Z,14.77
2022-12-17T08:41:08.181Z,15.27
2022-12-17T08:43:53.594Z,15.88
2022-12-17T08:46:39.106Z,15.27
2022-12-17T08:49:24.709Z,15.85
2022-12-17T08:52:10.109Z,15.18
2022-12-17T08:54:55.820Z,14.88
2022-12-17T08:57:41.368Z,14.82
2022-12-17T09:00:27.382Z,14.80
2022-12-17T09:06:15.954Z,13.48
2022-12-17T09:09:01.325Z,14.18
2022-12-17T09:11:46.775Z,15.57
2022-12-17T09:14:32.278Z,14.95
2022-12-17T09:17:17.693Z,15.68
2022-12-17T09:20:03.291Z,14.98
2022-12-17T09:22:48.737Z,14.88
2022-12-17T09:25:34.300Z,14.18
2022-12-17T09:28:22.715Z,14.43
2022-12-17T09:31:08.102Z,14.73
2022-12-17T09:33:53.742Z,14.55
2022-12-17T09:36:39.350Z,14.50
2022-12-17T09:39:24.892Z,14.82
2022-12-17T09:42:35.259Z,15.55
2022-12-17T09:45:42.425Z,14.20
2022-12-17T09:48:40.482Z,16.55
2022-12-17T09:51:41.701Z,14.70
2022-12-17T09:54:38.705Z,14.88
2022-12-17T09:57:27.671Z,14.75
2022-12-17T10:00:13.036Z,15.50
2022-12-17T10:02:58.700Z,16.00
2022-12-17T10:05:48.183Z,15.20
2022-12-17T10:08:37.248Z,15.65
2022-12-17T10:11:39.795Z,14.85
2022-12-17T10:14:36.986Z,15.25
2022-12-17T10:17:22.510Z,15.55
2022-12-17T10:20:13.560Z,15.80
2022-12-17T10:23:04.176Z,16.42
2022-12-17T10:25:49.865Z,16.20
2022-12-17T10:28:41.218Z,15.43
2022-12-17T10:31:35.308Z,15.60
2022-12-17T10:34:20.487Z,15.13
2022-12-17T10:37:09.018Z,15.87
2022-12-17T10:39:54.902Z,15.65
2022-12-17T10:42:56.392Z,15.07
2022-12-17T10:45:50.437Z,15.95
2022-12-17T10:48:46.964Z,14.95
2022-12-17T10:54:49.960Z,15.18
2022-12-17T10:57:54.854Z,14.75
2022-12-17T11:00:47.366Z,15.65
2022-12-17T11:03:48.593Z,14.45
2022-12-17T11:06:48.400Z,14.32
2022-12-17T11:09:39.883Z,14.52
2022-12-17T11:12:31.009Z,14.23
2022-12-17T11:15:22.723Z,14.65
2022-12-17T11:18:11.582Z,15.38
2022-12-17T11:21:21.510Z,15.32
2022-12-17T11:24:09.618Z,15.52
2022-12-17T11:26:56.568Z,15.65
2022-12-17T11:29:42.146Z,15.18
2022-12-17T11:32:45.760Z,16.08
2022-12-17T11:35:35.903Z,17.65
2022-12-17T11:38:42.170Z,16.23
2022-12-17T11:41:53.909Z,16.20
2022-12-17T11:45:03.344Z,16.98
2022-12-17T11:48:17.479Z,17.73
2022-12-17T11:51:16.694Z,16.48
2022-12-17T11:54:46.145Z,16.48
2022-12-17T11:57:42.656Z,16.60
2022-12-17T12:00:39.062Z,17.63
2022-12-17T12:06:18.128Z,17.50
2022-12-17T12:09:35.711Z,18.80
2022-12-17T12:12:30.878Z,18.77
2022-12-17T12:15:31.488Z,19.85
2022-12-17T12:18:27.044Z,20.17
2022-12-17T12:21:41.905Z,20.83
2022-12-17T12:24:46.102Z,21.23
2022-12-17T12:27:43.770Z,20.52
2022-12-17T12:30:34.764Z,21.13
2022-12-17T12:33:40.922Z,22.45
2022-12-17T12:36:30.936Z,22.20
2022-12-17T12:39:19.841Z,20.90
2022-12-17T12:42:34.419Z,20.77
2022-12-17T12:46:01.641Z,21.88
2022-12-17T12:49:13.167Z,22.48
2022-12-17T12:51:58.497Z,23.08
2022-12-17T12:55:07.246Z,20.83
2022-12-17T12:58:00.306Z,20.58
2022-12-17T13:00:57.524Z,22.85
2022-12-17T13:03:48.377Z,23.85
2022-12-17T13:06:46.039Z,22.25
2022-12-17T13:09:15.589Z,21.30
2022-12-17T13:11:53.562Z,20.95
2022-12-17T13:14:24.335Z,20.20
2022-12-17T13:16:55.752Z,18.83
2022-12-17T13:19:31.287Z,19.60
2022-12-17T13:22:23.983Z,18.42
2022-12-17T13:24:53.764Z,17.30
2022-12-17T13:27:31.933Z,18.27
2022-12-17T13:30:11.878Z,18.98
2022-12-17T13:32:46.060Z,18.15
2022-12-17T13:35:43.918Z,17.65
2022-12-17T13:38:31.138Z,18.25
2022-12-17T13:41:16.214Z,18.27
2022-12-17T13:43:53.269Z,20.20
2022-12-17T13:46:21.088Z,18.73
2022-12-17T13:48:54.013Z,19.77
2022-12-17T13:51:22.874Z,19.65
2022-12-17T13:53:57.727Z,18.38
2022-12-17T13:56:28.238Z,18.33
2022-12-17T13:58:56.864Z,17.23
2022-12-17T14:01:26.288Z,18.15
2022-12-17T14:04:08.211Z,17.20
2022-12-17T14:06:38.787Z,16.30
2022-12-17T14:09:06.137Z,17.65
2022-12-17T14:11:52.501Z,16.85
2022-12-17T14:14:31.753Z,17.92
2022-12-17T14:16:59.107Z,17.75
2022-12-17T14:19:26.538Z,18.90
2022-12-17T14:21:54.123Z,18.83
2022-12-17T14:24:26.952Z,19.80
2022-12-17T14:26:56.382Z,18.02
2022-12-17T14:29:29.568Z,17.33
2022-12-17T14:31:59.252Z,16.40
2022-12-17T14:34:26.142Z,15.65
2022-12-17T14:36:56.346Z,16.15
2022-12-17T14:39:33.149Z,16.55
2022-12-17T14:42:26.035Z,16.15
2022-12-17T14:44:57.619Z,18.45
2022-12-17T14:47:29.838Z,16.52
2022-12-17T14:50:05.615Z,16.20
2022-12-17T14:52:49.151Z,15.85
2022-12-17T14:55:22.574Z,14.13
2022-12-17T14:57:51.543Z,15.10
2022-12-17T15:00:18.814Z,15.05
2022-12-17T15:02:54.387Z,15.75
2022-12-17T15:05:21.353Z,16.85
2022-12-17T15:07:48.046Z,17.15
2022-12-17T15:10:18.971Z,17.75
2022-12-17T15:12:46.037Z,17.88
2022-12-17T15:15:15.281Z,18.13
2022-12-17T15:17:42.522Z,17.40
2022-12-17T15:20:20.762Z,18.55
2022-12-17T15:22:48.342Z,19.10
2022-12-17T15:25:17.989Z,18.83
2022-12-17T15:27:45.426Z,20.25
2022-12-17T15:30:16.812Z,19.95
2022-12-17T15:32:44.514Z,21.23
2022-12-17T15:35:12.412Z,21.00
2022-12-17T15:37:39.498Z,19.58
2022-12-17T15:40:07.882Z,19.83
2022-12-17T15:42:53.200Z,17.88
2022-12-17T15:45:19.913Z,20.08
2022-12-17T15:47:46.663Z,20.63
2022-12-17T15:50:13.418Z,21.20
2022-12-17T15:52:40.067Z,20.83
2022-12-17T15:55:07.090Z,18.98
2022-12-17T15:57:34.134Z,18.67
2022-12-17T16:00:00.860Z,19.58
2022-12-17T16:02:27.728Z,18.25
2022-12-17T16:04:54.802Z,18.15
2022-12-17T16:07:21.555Z,16.75
2022-12-17T16:09:48.287Z,16.67
2022-12-17T16:12:15.013Z,17.67
2022-12-17T16:14:41.901Z,17.00
2022-12-17T16:17:08.610Z,17.38
2022-12-17T16:19:35.381Z,16.77
2022-12-17T16:22:02.149Z,17.48
2022-12-17T16:24:28.920Z,18.50
2022-12-17T16:26:59.401Z,17.33
2022-12-17T16:29:29.351Z,16.40
2022-12-17T16:31:56.065Z,15.55
2022-12-17T16:34:22.856Z,16.90
2022-12-17T16:36:49.689Z,17.42
2022-12-17T16:39:18.898Z,15.90
2022-12-17T16:41:46.228Z,16.77
2022-12-17T16:44:13.617Z,17.02
2022-12-17T16:46:42.702Z,17.00
2022-12-17T16:49:27.792Z,15.73
2022-12-17T16:51:55.694Z,16.50
2022-12-17T16:54:26.470Z,16.05
2022-12-17T16:56:55.454Z,16.85
2022-12-17T16:59:23.534Z,15.35
2022-12-17T17:01:52.022Z,15.63
2022-12-17T17:04:21.817Z,17.17
2022-12-17T17:06:54.153Z,16.42
2022-12-17T17:09:22.490Z,16.58
2022-12-17T17:11:51.743Z,17.58
2022-12-17T17:14:19.051Z,17.00
2022-12-17T17:16:45.921Z,16.90
2022-12-17T17:19:12.753Z,16.95
2022-12-17T17:21:42.138Z,17.63
2022-12-17T17:24:20.963Z,17.67
2022-12-17T17:26:49.578Z,18.48
2022-12-17T17:29:16.310Z,18.33
2022-12-17T17:34:29.834Z,19.05
2022-12-17T17:36:56.533Z,18.52
2022-12-17T17:39:23.231Z,19.50
2022-12-17T17:41:50.207Z,19.67
2022-12-17T17:44:16.948Z,19.05
2022-12-17T17:46:44.002Z,19.45
2022-12-17T17:49:11.905Z,18.42
2022-12-17T17:54:28.763Z,21.25
2022-12-17T17:56:55.586Z,20.23
2022-12-17T17:59:29.193Z,20.80
2022-12-17T18:02:00.217Z,18.40
2022-12-17T18:04:27.948Z,18.67
2022-12-17T18:09:41.543Z,18.48
2022-12-17T18:12:26.956Z,18.92
2022-12-17T18:17:40.598Z,18.83
2022-12-17T18:20:09.556Z,18.75
2022-12-17T18:22:36.355Z,19.08
2022-12-17T18:25:03.178Z,19.65
2022-12-17T18:27:29.899Z,18.83
2022-12-17T18:29:56.619Z,18.88
2022-12-17T18:32:23.326Z,18.15
2022-12-17T18:34:50.303Z,18.52
2022-12-17T18:37:17.135Z,19.77
2022-12-17T18:39:43.879Z,19.27
2022-12-17T18:42:29.313Z,20.80
2022-12-17T18:44:56.138Z,19.88
2022-12-17T18:47:23.043Z,19.77
2022-12-17T18:49:50.231Z,18.15
2022-12-17T18:52:17.568Z,20.00
2022-12-17T18:54:45.371Z,18.90
2022-12-17T18:57:13.259Z,19.17
2022-12-17T18:59:40.970Z,19.35
2022-12-17T19:02:15.064Z,19.02
2022-12-17T19:04:42.050Z,19.02
2022-12-17T19:07:08.900Z,20.23
2022-12-17T19:09:36.294Z,19.83
2022-12-17T19:12:05.094Z,20.27
2022-12-17T19:14:31.888Z,20.23
2022-12-17T19:16:59.048Z,20.73
2022-12-17T19:19:26.560Z,20.63
2022-12-17T19:21:55.169Z,20.63
2022-12-17T19:24:23.347Z,20.88
2022-12-17T19:26:51.370Z,20.95
2022-12-17T19:29:20.260Z,21.48
2022-12-17T19:31:47.987Z,21.08
2022-12-17T19:34:17.075Z,20.90
2022-12-17T19:36:44.402Z,21.20
2022-12-17T19:39:13.885Z,21.60
2022-12-17T19:41:40.825Z,20.92
2022-12-17T19:44:12.356Z,22.60
2022-12-17T19:46:39.379Z,20.58
2022-12-17T19:49:06.162Z,20.95
2022-12-17T19:51:33.574Z,20.70
2022-12-17T19:54:06.489Z,21.88
2022-12-17T19:56:35.534Z,20.55
2022-12-17T19:59:07.043Z,20.67
2022-12-17T20:01:36.914Z,21.48
2022-12-17T20:04:04.609Z,21.83
2022-12-17T20:06:33.501Z,21.17
2022-12-17T20:09:01.613Z,19.48
2022-12-17T20:11:34.747Z,20.15
2022-12-17T20:14:12.174Z,20.95
2022-12-17T20:16:42.507Z,21.00
2022-12-17T20:19:15.902Z,19.67
2022-12-17T20:21:42.858Z,21.02
2022-12-17T20:24:10.695Z,20.50
2022-12-17T20:26:37.556Z,20.65
2022-12-17T20:29:05.039Z,20.48
2022-12-17T20:31:32.623Z,22.60
2022-12-17T20:34:05.659Z,20.73
2022-12-17T20:36:33.072Z,21.08
2022-12-17T20:39:00.545Z,21.15
2022-12-17T20:41:29.540Z,21.58
2022-12-17T20:43:57.316Z,19.77
2022-12-17T20:46:25.626Z,21.40
2022-12-17T20:48:52.505Z,21.50
2022-12-17T20:51:25.932Z,20.17
2022-12-17T20:53:53.944Z,20.80
2022-12-17T20:56:24.742Z,19.88
2022-12-17T20:59:00.370Z,21.83
2022-12-17T21:03:56.654Z,20.38
2022-12-17T21:06:43.961Z,20.02
2022-12-17T21:09:11.812Z,20.00
2022-12-17T21:11:40.095Z,20.25
2022-12-17T21:14:10.137Z,21.25
2022-12-17T21:16:38.666Z,21.23
2022-12-17T21:19:07.582Z,20.13
2022-12-17T21:21:37.195Z,21.13
2022-12-17T21:24:04.742Z,21.40
2022-12-17T21:26:40.433Z,21.73
2022-12-17T21:29:08.475Z,21.42
2022-12-17T21:31:44.830Z,21.48
2022-12-17T21:34:14.608Z,22.05
2022-12-17T21:36:41.806Z,21.08
2022-12-17T21:39:09.961Z,21.45
2022-12-17T21:41:39.283Z,22.25
2022-12-17T21:44:13.090Z,20.52
2022-12-17T21:46:40.938Z,21.02
2022-12-17T21:49:07.724Z,22.25
2022-12-17T21:51:35.506Z,21.17
2022-12-17T21:54:08.647Z,20.52
2022-12-17T21:56:36.655Z,21.10
2022-12-17T21:59:03.684Z,20.42
2022-12-17T22:01:32.995Z,21.10
2022-12-17T22:04:02.587Z,19.30
2022-12-17T22:06:35.518Z,20.05
2022-12-17T22:09:18.249Z,19.48
2022-12-17T22:12:17.028Z,20.05
2022-12-17T22:14:44.085Z,19.00
2022-12-17T22:17:10.814Z,19.38
2022-12-17T22:19:37.580Z,19.33
2022-12-17T22:22:04.429Z,19.17
2022-12-17T22:24:36.539Z,18.30
2022-12-17T22:27:04.280Z,18.50
2022-12-17T22:29:54.827Z,19.35
2022-12-17T22:32:40.178Z,19.00
2022-12-17T22:36:40.509Z,18.38
2022-12-17T22:42:41.394Z,19.45
2022-12-17T22:44:44.735Z,18.77
2022-12-17T22:44:49.154Z,17.77
2022-12-17T22:46:19.467Z,18.00
2022-12-17T22:48:47.089Z,17.77
2022-12-17T22:51:17.838Z,18.67
2022-12-17T22:53:52.621Z,17.83
2022-12-17T22:56:36.193Z,18.00
2022-12-17T22:59:07.810Z,17.02
2022-12-17T23:01:35.219Z,18.02
2022-12-17T23:04:03.632Z,16.73
2022-12-17T23:06:30.520Z,16.08
2022-12-17T23:08:57.538Z,16.98
2022-12-17T23:11:26.313Z,16.27
2022-12-17T23:13:53.921Z,16.48
2022-12-17T23:16:21.494Z,17.33
2022-12-17T23:18:51.397Z,17.52
2022-12-17T23:21:19.998Z,16.95
2022-12-17T23:23:46.841Z,17.55
2022-12-17T23:26:17.241Z,16.77
2022-12-17T23:28:45.011Z,16.20
2022-12-17T23:31:18.596Z,17.40
2022-12-17T23:33:46.635Z,16.73
2022-12-17T23:36:16.607Z,16.52
2022-12-17T23:38:43.807Z,17.05
2022-12-17T23:41:18.749Z,16.50
2022-12-17T23:43:47.916Z,17.17
2022-12-17T23:46:15.215Z,17.60
2022-12-17T23:48:45.563Z,17.35
2022-12-17T23:51:14.812Z,16.75
2022-12-17T23:53:42.895Z,17.38
2022-12-17T23:56:14.486Z,17.77
2022-12-17T23:58:42.727Z,17.80
